sensor_id;sensor_type;location;lat;lon;timestamp;pressure;altitude;pressure_sealevel;temperature;humidity
32747;BME280;19118;50.860;13.662;2023-04-07T00:04:01;97062.84;;;-1.07;100.00
32747;BME280;19118;50.860;13.662;2023-04-07T00:09:02;97063.25;;;-1.23;100.00
32747;BME280;19118;50.860;13.662;2023-04-07T00:14:02;97070.03;;;-1.54;100.00
32747;BME280;19118;50.860;13.662;2023-04-07T00:19:03;97059.47;;;-1.73;100.00
32747;BME280;19118;50.860;13.662;2023-04-07T00:24:03;97055.34;;;-1.98;100.00
32747;BME280;19118;50.860;13.662;2023-04-07T00:29:04;97063.38;;;-2.12;100.00
32747;BME280;19118;50.860;13.662;2023-04-07T00:34:04;97057.56;;;-2.27;100.00
32747;BME280;19118;50.860;13.662;2023-04-07T00:39:05;97048.88;;;-2.37;100.00
32747;BME280;19118;50.860;13.662;2023-04-07T00:44:05;97045.81;;;-2.42;100.00
32747;BME280;19118;50.860;13.662;2023-04-07T00:49:06;97041.81;;;-2.46;100.00
32747;BME280;19118;50.860;13.662;2023-04-07T00:54:06;97035.56;;;-2.55;100.00
32747;BME280;19118;50.860;13.662;2023-04-07T00:59:08;97038.25;;;-2.56;100.00
32747;BME280;19118;50.860;13.662;2023-04-07T01:04:26;97025.66;;;-2.61;100.00
32747;BME280;19118;50.860;13.662;2023-04-07T01:09:38;97017.66;;;-2.69;100.00
32747;BME280;19118;50.860;13.662;2023-04-07T01:14:46;97016.81;;;-2.81;100.00
32747;BME280;19118;50.860;13.662;2023-04-07T01:20:11;97007.50;;;-2.83;100.00
32747;BME280;19118;50.860;13.662;2023-04-07T01:30:31;97010.78;;;-2.92;100.00
32747;BME280;19118;50.860;13.662;2023-04-07T01:35:33;97003.81;;;-3.03;100.00
32747;BME280;19118;50.860;13.662;2023-04-07T01:40:36;96998.41;;;-3.00;100.00
32747;BME280;19118;50.860;13.662;2023-04-07T01:45:38;96992.84;;;-3.07;100.00
32747;BME280;19118;50.860;13.662;2023-04-07T01:50:40;96996.13;;;-3.16;100.00
32747;BME280;19118;50.860;13.662;2023-04-07T01:55:41;96995.09;;;-3.13;100.00
32747;BME280;19118;50.860;13.662;2023-04-07T02:00:42;96997.13;;;-3.06;100.00
32747;BME280;19118;50.860;13.662;2023-04-07T02:05:51;96997.47;;;-2.99;100.00
32747;BME280;19118;50.860;13.662;2023-04-07T02:10:56;96981.72;;;-2.85;100.00
32747;BME280;19118;50.860;13.662;2023-04-07T02:15:58;96976.56;;;-2.85;100.00
32747;BME280;19118;50.860;13.662;2023-04-07T02:21:01;96979.03;;;-2.83;100.00
32747;BME280;19118;50.860;13.662;2023-04-07T02:26:03;96972.69;;;-2.90;100.00
32747;BME280;19118;50.860;13.662;2023-04-07T02:31:03;96976.44;;;-2.83;100.00
32747;BME280;19118;50.860;13.662;2023-04-07T02:36:05;96967.84;;;-2.95;100.00
32747;BME280;19118;50.860;13.662;2023-04-07T02:41:06;96972.31;;;-2.97;100.00
32747;BME280;19118;50.860;13.662;2023-04-07T02:46:06;96968.19;;;-3.00;100.00
32747;BME280;19118;50.860;13.662;2023-04-07T02:51:07;96968.06;;;-3.09;100.00
32747;BME280;19118;50.860;13.662;2023-04-07T02:56:07;96963.94;;;-3.12;100.00
32747;BME280;19118;50.860;13.662;2023-04-07T03:01:07;96963.13;;;-3.12;100.00
32747;BME280;19118;50.860;13.662;2023-04-07T03:06:09;96960.16;;;-3.08;100.00
32747;BME280;19118;50.860;13.662;2023-04-07T03:11:16;96962.44;;;-3.03;100.00
32747;BME280;19118;50.860;13.662;2023-04-07T03:16:18;96946.78;;;-3.13;100.00
32747;BME280;19118;50.860;13.662;2023-04-07T03:21:32;96951.56;;;-3.19;100.00
32747;BME280;19118;50.860;13.662;2023-04-07T03:26:32;96944.75;;;-3.20;100.00
32747;BME280;19118;50.860;13.662;2023-04-07T03:31:34;96947.31;;;-3.32;100.00
32747;BME280;19118;50.860;13.662;2023-04-07T03:36:34;96947.53;;;-3.35;100.00
32747;BME280;19118;50.860;13.662;2023-04-07T03:41:38;96938.50;;;-3.29;100.00
32747;BME280;19118;50.860;13.662;2023-04-07T03:46:38;96938.03;;;-3.34;100.00
32747;BME280;19118;50.860;13.662;2023-04-07T03:51:39;96942.59;;;-3.38;100.00
32747;BME280;19118;50.860;13.662;2023-04-07T03:56:46;96943.31;;;-3.36;100.00
32747;BME280;19118;50.860;13.662;2023-04-07T04:01:51;96934.25;;;-3.30;100.00
32747;BME280;19118;50.860;13.662;2023-04-07T04:06:52;96950.16;;;-3.24;100.00
32747;BME280;19118;50.860;13.662;2023-04-07T04:11:58;96937.69;;;-3.18;100.00
32747;BME280;19118;50.860;13.662;2023-04-07T04:16:59;96946.88;;;-3.14;100.00
32747;BME280;19118;50.860;13.662;2023-04-07T04:22:14;96938.16;;;-3.25;100.00
32747;BME280;19118;50.860;13.662;2023-04-07T04:27:22;96937.91;;;-3.33;100.00
32747;BME280;19118;50.860;13.662;2023-04-07T04:32:29;96939.66;;;-3.33;100.00
32747;BME280;19118;50.860;13.662;2023-04-07T04:37:30;96940.72;;;-3.36;100.00
32747;BME280;19118;50.860;13.662;2023-04-07T04:42:32;96947.66;;;-3.36;100.00
32747;BME280;19118;50.860;13.662;2023-04-07T04:47:34;96938.72;;;-3.32;100.00
32747;BME280;19118;50.860;13.662;2023-04-07T04:52:37;96940.28;;;-3.18;100.00
32747;BME280;19118;50.860;13.662;2023-04-07T04:57:40;96940.41;;;-3.20;100.00
32747;BME280;19118;50.860;13.662;2023-04-07T05:02:44;96939.28;;;-3.05;100.00
32747;BME280;19118;50.860;13.662;2023-04-07T05:07:46;96940.13;;;-2.82;100.00
32747;BME280;19118;50.860;13.662;2023-04-07T05:12:48;96942.59;;;-2.58;100.00
32747;BME280;19118;50.860;13.662;2023-04-07T05:17:48;96938.25;;;-2.35;100.00
32747;BME280;19118;50.860;13.662;2023-04-07T05:22:54;96946.22;;;-2.16;100.00
32747;BME280;19118;50.860;13.662;2023-04-07T05:28:00;96927.81;;;-1.90;100.00
32747;BME280;19118;50.860;13.662;2023-04-07T05:33:00;96934.88;;;-1.60;100.00
32747;BME280;19118;50.860;13.662;2023-04-07T05:38:13;96933.03;;;-1.17;100.00
32747;BME280;19118;50.860;13.662;2023-04-07T05:43:14;96929.84;;;-0.78;100.00
32747;BME280;19118;50.860;13.662;2023-04-07T05:48:15;96923.13;;;-0.50;100.00
32747;BME280;19118;50.860;13.662;2023-04-07T05:53:19;96919.81;;;-0.32;100.00
32747;BME280;19118;50.860;13.662;2023-04-07T05:58:20;96928.03;;;-0.17;100.00
32747;BME280;19118;50.860;13.662;2023-04-07T06:03:24;96933.69;;;-0.02;100.00
32747;BME280;19118;50.860;13.662;2023-04-07T06:08:32;96926.22;;;0.14;100.00
32747;BME280;19118;50.860;13.662;2023-04-07T06:13:32;96932.81;;;0.38;100.00
32747;BME280;19118;50.860;13.662;2023-04-07T06:18:32;96931.00;;;0.96;100.00
32747;BME280;19118;50.860;13.662;2023-04-07T06:23:33;96932.84;;;1.70;100.00
32747;BME280;19118;50.860;13.662;2023-04-07T06:28:33;96935.25;;;2.26;100.00
32747;BME280;19118;50.860;13.662;2023-04-07T06:33:34;96937.44;;;3.02;100.00
32747;BME280;19118;50.860;13.662;2023-04-07T06:38:34;96938.59;;;3.52;96.11
32747;BME280;19118;50.860;13.662;2023-04-07T06:43:36;96957.31;;;3.73;88.40
32747;BME280;19118;50.860;13.662;2023-04-07T06:48:38;96950.72;;;3.95;80.33
32747;BME280;19118;50.860;13.662;2023-04-07T06:53:38;96954.44;;;4.26;74.43
32747;BME280;19118;50.860;13.662;2023-04-07T06:58:39;96952.25;;;4.96;72.28
32747;BME280;19118;50.860;13.662;2023-04-07T07:03:39;96955.69;;;5.30;65.80
32747;BME280;19118;50.860;13.662;2023-04-07T07:08:40;96957.63;;;5.52;64.94
32747;BME280;19118;50.860;13.662;2023-04-07T07:13:40;96961.75;;;5.22;62.32
32747;BME280;19118;50.860;13.662;2023-04-07T07:18:40;96971.25;;;5.31;62.95
32747;BME280;19118;50.860;13.662;2023-04-07T07:23:41;96972.88;;;5.32;62.35
32747;BME280;19118;50.860;13.662;2023-04-07T07:28:41;96976.16;;;5.42;62.42
32747;BME280;19118;50.860;13.662;2023-04-07T07:33:41;96969.28;;;5.33;63.59
32747;BME280;19118;50.860;13.662;2023-04-07T07:38:43;96984.66;;;5.52;61.14
32747;BME280;19118;50.860;13.662;2023-04-07T07:43:43;96985.94;;;5.73;62.72
32747;BME280;19118;50.860;13.662;2023-04-07T07:48:43;96994.84;;;5.47;62.79
32747;BME280;19118;50.860;13.662;2023-04-07T07:53:45;97000.91;;;5.56;65.23
32747;BME280;19118;50.860;13.662;2023-04-07T07:58:46;96996.44;;;5.73;63.47
32747;BME280;19118;50.860;13.662;2023-04-07T08:03:46;96996.63;;;6.27;61.42
32747;BME280;19118;50.860;13.662;2023-04-07T08:08:46;97008.81;;;6.59;60.32
32747;BME280;19118;50.860;13.662;2023-04-07T08:13:47;97015.59;;;6.45;60.55
32747;BME280;19118;50.860;13.662;2023-04-07T08:18:47;97015.06;;;6.10;61.00
32747;BME280;19118;50.860;13.662;2023-04-07T08:23:47;97016.56;;;6.05;57.91
32747;BME280;19118;50.860;13.662;2023-04-07T08:28:49;97024.38;;;6.21;59.34
32747;BME280;19118;50.860;13.662;2023-04-07T08:33:52;97032.28;;;6.60;57.02
32747;BME280;19118;50.860;13.662;2023-04-07T08:38:57;97024.75;;;7.34;55.85
32747;BME280;19118;50.860;13.662;2023-04-07T08:44:00;97010.50;;;7.81;54.99
32747;BME280;19118;50.860;13.662;2023-04-07T08:49:01;97014.69;;;7.90;54.37
32747;BME280;19118;50.860;13.662;2023-04-07T08:54:11;97004.53;;;8.31;55.51
32747;BME280;19118;50.860;13.662;2023-04-07T08:59:13;97004.09;;;8.42;54.65
32747;BME280;19118;50.860;13.662;2023-04-07T09:04:15;97010.44;;;8.99;53.09
32747;BME280;19118;50.860;13.662;2023-04-07T09:09:16;97006.06;;;8.70;51.71
32747;BME280;19118;50.860;13.662;2023-04-07T09:14:16;97008.19;;;8.81;51.09
32747;BME280;19118;50.860;13.662;2023-04-07T09:19:17;97004.72;;;9.17;50.40
32747;BME280;19118;50.860;13.662;2023-04-07T09:24:28;97002.47;;;8.41;52.59
32747;BME280;19118;50.860;13.662;2023-04-07T09:29:30;96999.13;;;9.05;51.07
32747;BME280;19118;50.860;13.662;2023-04-07T09:34:33;97000.16;;;9.75;49.88
32747;BME280;19118;50.860;13.662;2023-04-07T09:39:48;96998.69;;;9.23;51.04
32747;BME280;19118;50.860;13.662;2023-04-07T09:44:49;96994.00;;;8.82;48.93
32747;BME280;19118;50.860;13.662;2023-04-07T09:49:51;96997.44;;;9.40;49.64
32747;BME280;19118;50.860;13.662;2023-04-07T09:54:52;96994.88;;;9.75;48.73
32747;BME280;19118;50.860;13.662;2023-04-07T09:59:55;96994.44;;;9.71;50.45
32747;BME280;19118;50.860;13.662;2023-04-07T10:04:56;96992.28;;;9.53;49.15
32747;BME280;19118;50.860;13.662;2023-04-07T10:09:58;97002.47;;;9.14;49.99
32747;BME280;19118;50.860;13.662;2023-04-07T10:15:00;97003.31;;;9.91;49.77
32747;BME280;19118;50.860;13.662;2023-04-07T10:20:03;97008.44;;;9.01;51.73
32747;BME280;19118;50.860;13.662;2023-04-07T10:25:09;97001.44;;;9.57;52.02
32747;BME280;19118;50.860;13.662;2023-04-07T10:30:13;96998.13;;;9.77;51.08
32747;BME280;19118;50.860;13.662;2023-04-07T10:35:15;97000.72;;;9.42;51.24
32747;BME280;19118;50.860;13.662;2023-04-07T10:56:11;97003.69;;;11.12;48.39
32747;BME280;19118;50.860;13.662;2023-04-07T11:06:12;96997.63;;;11.45;47.39
32747;BME280;19118;50.860;13.662;2023-04-07T11:11:16;96994.84;;;10.03;48.58
32747;BME280;19118;50.860;13.662;2023-04-07T11:16:18;97003.84;;;9.31;50.18
32747;BME280;19118;50.860;13.662;2023-04-07T11:21:18;96999.78;;;9.78;50.81
32747;BME280;19118;50.860;13.662;2023-04-07T11:26:19;96995.13;;;10.14;50.19
32747;BME280;19118;50.860;13.662;2023-04-07T11:31:27;96999.06;;;10.66;47.87
32747;BME280;19118;50.860;13.662;2023-04-07T11:36:33;96986.34;;;11.09;47.81
32747;BME280;19118;50.860;13.662;2023-04-07T11:41:45;96993.03;;;10.38;47.14
32747;BME280;19118;50.860;13.662;2023-04-07T11:46:59;96985.25;;;9.95;49.64
32747;BME280;19118;50.860;13.662;2023-04-07T11:52:01;96985.78;;;10.18;48.84
32747;BME280;19118;50.860;13.662;2023-04-07T11:57:02;96994.06;;;10.37;49.51
32747;BME280;19118;50.860;13.662;2023-04-07T12:02:02;96993.53;;;10.20;49.30
32747;BME280;19118;50.860;13.662;2023-04-07T12:07:08;96982.16;;;10.61;48.88
32747;BME280;19118;50.860;13.662;2023-04-07T12:12:08;96976.34;;;10.92;48.98
32747;BME280;19118;50.860;13.662;2023-04-07T12:17:22;96977.78;;;10.05;51.38
32747;BME280;19118;50.860;13.662;2023-04-07T12:22:23;96979.53;;;9.91;49.90
32747;BME280;19118;50.860;13.662;2023-04-07T12:27:23;96990.34;;;10.25;50.72
32747;BME280;19118;50.860;13.662;2023-04-07T12:32:23;96984.34;;;9.81;51.93
32747;BME280;19118;50.860;13.662;2023-04-07T12:37:24;96981.38;;;9.91;50.83
32747;BME280;19118;50.860;13.662;2023-04-07T12:42:25;96984.19;;;9.89;49.72
32747;BME280;19118;50.860;13.662;2023-04-07T12:47:26;96977.56;;;10.96;48.51
32747;BME280;19118;50.860;13.662;2023-04-07T12:52:26;96983.44;;;10.78;47.67
32747;BME280;19118;50.860;13.662;2023-04-07T12:57:27;96974.31;;;10.94;48.74
32747;BME280;19118;50.860;13.662;2023-04-07T13:02:27;96971.25;;;10.97;47.66
32747;BME280;19118;50.860;13.662;2023-04-07T13:07:28;96981.88;;;11.03;48.58
32747;BME280;19118;50.860;13.662;2023-04-07T13:12:28;96980.03;;;10.91;50.61
32747;BME280;19118;50.860;13.662;2023-04-07T13:17:29;96975.47;;;10.65;48.27
32747;BME280;19118;50.860;13.662;2023-04-07T13:22:29;96976.31;;;10.78;49.54
32747;BME280;19118;50.860;13.662;2023-04-07T13:27:30;96964.56;;;10.88;48.09
32747;BME280;19118;50.860;13.662;2023-04-07T13:32:31;96976.66;;;10.62;48.08
32747;BME280;19118;50.860;13.662;2023-04-07T13:37:31;96970.09;;;10.52;48.73
32747;BME280;19118;50.860;13.662;2023-04-07T13:42:32;96966.34;;;10.81;47.84
32747;BME280;19118;50.860;13.662;2023-04-07T13:47:32;96965.38;;;10.95;51.08
32747;BME280;19118;50.860;13.662;2023-04-07T13:52:33;96959.03;;;10.83;49.19
32747;BME280;19118;50.860;13.662;2023-04-07T13:57:34;96956.38;;;10.83;49.79
32747;BME280;19118;50.860;13.662;2023-04-07T14:02:34;96960.47;;;10.92;51.59
32747;BME280;19118;50.860;13.662;2023-04-07T14:07:35;96958.03;;;10.97;49.47
32747;BME280;19118;50.860;13.662;2023-04-07T14:12:35;96958.50;;;10.46;50.86
32747;BME280;19118;50.860;13.662;2023-04-07T14:17:36;96945.63;;;10.30;52.92
32747;BME280;19118;50.860;13.662;2023-04-07T14:22:36;96948.91;;;10.32;56.63
32747;BME280;19118;50.860;13.662;2023-04-07T14:27:36;96946.59;;;10.70;52.59
32747;BME280;19118;50.860;13.662;2023-04-07T14:32:37;96946.41;;;10.24;56.06
32747;BME280;19118;50.860;13.662;2023-04-07T14:37:37;96943.63;;;10.32;54.05
32747;BME280;19118;50.860;13.662;2023-04-07T14:42:37;96947.69;;;10.41;53.78
32747;BME280;19118;50.860;13.662;2023-04-07T14:47:38;96936.63;;;10.72;53.44
32747;BME280;19118;50.860;13.662;2023-04-07T14:52:38;96952.97;;;10.41;55.61
32747;BME280;19118;50.860;13.662;2023-04-07T14:57:38;96944.94;;;10.56;55.52
32747;BME280;19118;50.860;13.662;2023-04-07T15:02:39;96953.06;;;10.54;54.32
32747;BME280;19118;50.860;13.662;2023-04-07T15:07:39;96947.78;;;9.85;56.74
32747;BME280;19118;50.860;13.662;2023-04-07T15:12:39;96952.25;;;9.84;55.93
32747;BME280;19118;50.860;13.662;2023-04-07T15:17:40;96951.28;;;9.92;55.99
32747;BME280;19118;50.860;13.662;2023-04-07T15:22:40;96949.59;;;9.78;56.63
32747;BME280;19118;50.860;13.662;2023-04-07T15:27:40;96940.22;;;9.47;58.00
32747;BME280;19118;50.860;13.662;2023-04-07T15:32:41;96940.78;;;9.15;56.27
32747;BME280;19118;50.860;13.662;2023-04-07T15:37:41;96950.47;;;9.29;59.03
32747;BME280;19118;50.860;13.662;2023-04-07T15:42:42;96952.84;;;9.02;58.82
32747;BME280;19118;50.860;13.662;2023-04-07T15:47:42;96951.97;;;8.95;58.56
32747;BME280;19118;50.860;13.662;2023-04-07T15:52:42;96948.44;;;8.67;58.28
32747;BME280;19118;50.860;13.662;2023-04-07T15:57:43;96948.50;;;8.37;59.39
32747;BME280;19118;50.860;13.662;2023-04-07T16:02:44;96957.59;;;8.20;60.96
32747;BME280;19118;50.860;13.662;2023-04-07T16:07:44;96956.34;;;8.16;61.35
32747;BME280;19118;50.860;13.662;2023-04-07T16:12:46;96959.31;;;7.98;61.71
32747;BME280;19118;50.860;13.662;2023-04-07T16:17:47;96959.13;;;8.00;62.02
32747;BME280;19118;50.860;13.662;2023-04-07T16:22:48;96962.94;;;7.68;61.80
32747;BME280;19118;50.860;13.662;2023-04-07T16:27:50;96971.75;;;7.60;63.02
32747;BME280;19118;50.860;13.662;2023-04-07T16:32:51;96977.16;;;7.44;64.38
32747;BME280;19118;50.860;13.662;2023-04-07T16:37:51;96977.28;;;7.27;64.87
32747;BME280;19118;50.860;13.662;2023-04-07T16:42:53;96986.28;;;7.10;64.41
32747;BME280;19118;50.860;13.662;2023-04-07T16:47:54;96994.31;;;6.94;65.93
32747;BME280;19118;50.860;13.662;2023-04-07T16:52:54;97005.91;;;6.77;66.93
32747;BME280;19118;50.860;13.662;2023-04-07T16:57:56;97004.13;;;6.46;69.87
32747;BME280;19118;50.860;13.662;2023-04-07T17:02:56;97006.63;;;6.31;72.59
32747;BME280;19118;50.860;13.662;2023-04-07T17:07:57;97012.84;;;6.38;70.97
32747;BME280;19118;50.860;13.662;2023-04-07T17:12:57;97008.94;;;6.26;72.38
32747;BME280;19118;50.860;13.662;2023-04-07T17:17:57;97021.34;;;6.01;74.00
32747;BME280;19118;50.860;13.662;2023-04-07T17:22:58;97023.16;;;5.93;74.77
32747;BME280;19118;50.860;13.662;2023-04-07T17:27:59;97034.47;;;5.77;75.95
32747;BME280;19118;50.860;13.662;2023-04-07T17:32:59;97030.06;;;5.61;77.60
32747;BME280;19118;50.860;13.662;2023-04-07T17:38:00;97045.31;;;5.58;78.76
32747;BME280;19118;50.860;13.662;2023-04-07T17:43:03;97049.91;;;5.55;80.08
32747;BME280;19118;50.860;13.662;2023-04-07T17:48:04;97053.84;;;5.35;82.17
32747;BME280;19118;50.860;13.662;2023-04-07T17:53:04;97054.16;;;5.24;81.41
32747;BME280;19118;50.860;13.662;2023-04-07T17:58:05;97054.31;;;5.14;82.54
32747;BME280;19118;50.860;13.662;2023-04-07T18:03:06;97064.94;;;5.05;82.48
32747;BME280;19118;50.860;13.662;2023-04-07T18:08:06;97066.41;;;4.91;82.96
32747;BME280;19118;50.860;13.662;2023-04-07T18:13:07;97067.50;;;4.80;84.97
32747;BME280;19118;50.860;13.662;2023-04-07T18:18:07;97078.59;;;4.66;87.44
32747;BME280;19118;50.860;13.662;2023-04-07T18:23:08;97084.19;;;4.71;85.44
32747;BME280;19118;50.860;13.662;2023-04-07T18:28:08;97085.13;;;4.62;85.87
32747;BME280;19118;50.860;13.662;2023-04-07T18:33:09;97097.13;;;4.38;87.63
32747;BME280;19118;50.860;13.662;2023-04-07T18:38:09;97099.75;;;4.38;92.56
32747;BME280;19118;50.860;13.662;2023-04-07T18:43:10;97101.72;;;4.36;93.96
32747;BME280;19118;50.860;13.662;2023-04-07T18:48:10;97098.44;;;4.34;95.72
32747;BME280;19118;50.860;13.662;2023-04-07T18:53:10;97105.56;;;4.24;94.40
32747;BME280;19118;50.860;13.662;2023-04-07T18:58:14;97113.22;;;4.18;94.96
32747;BME280;19118;50.860;13.662;2023-04-07T19:03:15;97103.88;;;4.15;97.46
32747;BME280;19118;50.860;13.662;2023-04-07T19:08:15;97109.13;;;4.15;99.62
32747;BME280;19118;50.860;13.662;2023-04-07T19:13:16;97109.06;;;4.07;100.00
32747;BME280;19118;50.860;13.662;2023-04-07T19:18:17;97105.78;;;4.05;100.00
32747;BME280;19118;50.860;13.662;2023-04-07T19:23:17;97109.31;;;3.96;100.00
32747;BME280;19118;50.860;13.662;2023-04-07T19:28:18;97111.78;;;3.97;100.00
32747;BME280;19118;50.860;13.662;2023-04-07T19:33:18;97117.63;;;3.91;100.00
32747;BME280;19118;50.860;13.662;2023-04-07T19:38:18;97106.34;;;3.91;100.00
32747;BME280;19118;50.860;13.662;2023-04-07T19:43:19;97114.00;;;3.66;100.00
32747;BME280;19118;50.860;13.662;2023-04-07T19:48:20;97117.69;;;3.56;100.00
32747;BME280;19118;50.860;13.662;2023-04-07T19:53:20;97110.28;;;3.51;100.00
32747;BME280;19118;50.860;13.662;2023-04-07T19:58:23;97108.63;;;3.50;100.00
32747;BME280;19118;50.860;13.662;2023-04-07T20:03:24;97105.16;;;3.41;100.00
32747;BME280;19118;50.860;13.662;2023-04-07T20:08:24;97108.44;;;3.43;100.00
32747;BME280;19118;50.860;13.662;2023-04-07T20:13:25;97108.88;;;3.21;100.00
32747;BME280;19118;50.860;13.662;2023-04-07T20:18:27;97109.25;;;3.08;100.00
32747;BME280;19118;50.860;13.662;2023-04-07T20:23:27;97107.47;;;3.09;100.00
32747;BME280;19118;50.860;13.662;2023-04-07T20:28:28;97104.97;;;2.89;100.00
32747;BME280;19118;50.860;13.662;2023-04-07T20:33:28;97099.41;;;2.75;100.00
32747;BME280;19118;50.860;13.662;2023-04-07T20:38:28;97096.66;;;2.76;100.00
32747;BME280;19118;50.860;13.662;2023-04-07T20:43:29;97105.88;;;2.71;100.00
32747;BME280;19118;50.860;13.662;2023-04-07T20:48:29;97098.13;;;2.61;100.00
32747;BME280;19118;50.860;13.662;2023-04-07T20:53:31;97104.00;;;2.63;100.00
32747;BME280;19118;50.860;13.662;2023-04-07T20:58:31;97101.81;;;2.58;100.00
32747;BME280;19118;50.860;13.662;2023-04-07T21:03:32;97107.44;;;2.63;100.00
32747;BME280;19118;50.860;13.662;2023-04-07T21:08:32;97100.66;;;2.71;100.00
32747;BME280;19118;50.860;13.662;2023-04-07T21:13:33;97096.03;;;2.65;100.00
32747;BME280;19118;50.860;13.662;2023-04-07T21:18:33;97094.41;;;2.63;100.00
32747;BME280;19118;50.860;13.662;2023-04-07T21:23:33;97097.56;;;2.57;100.00
32747;BME280;19118;50.860;13.662;2023-04-07T21:28:34;97099.91;;;2.60;100.00
32747;BME280;19118;50.860;13.662;2023-04-07T21:33:34;97102.22;;;2.63;100.00
32747;BME280;19118;50.860;13.662;2023-04-07T21:38:35;97095.72;;;2.68;100.00
32747;BME280;19118;50.860;13.662;2023-04-07T21:43:35;97105.31;;;2.77;100.00
32747;BME280;19118;50.860;13.662;2023-04-07T21:48:35;97093.78;;;2.70;100.00
32747;BME280;19118;50.860;13.662;2023-04-07T21:53:36;97088.78;;;2.58;100.00
32747;BME280;19118;50.860;13.662;2023-04-07T21:58:36;97094.34;;;2.46;100.00
32747;BME280;19118;50.860;13.662;2023-04-07T22:03:37;97105.22;;;2.41;100.00
32747;BME280;19118;50.860;13.662;2023-04-07T22:08:38;97096.97;;;2.36;100.00
32747;BME280;19118;50.860;13.662;2023-04-07T22:13:38;97099.22;;;2.31;100.00
32747;BME280;19118;50.860;13.662;2023-04-07T22:18:39;97111.97;;;2.34;100.00
32747;BME280;19118;50.860;13.662;2023-04-07T22:23:39;97103.63;;;2.21;100.00
32747;BME280;19118;50.860;13.662;2023-04-07T22:28:40;97105.91;;;2.06;100.00
32747;BME280;19118;50.860;13.662;2023-04-07T22:33:40;97109.03;;;2.10;100.00
32747;BME280;19118;50.860;13.662;2023-04-07T22:38:41;97113.00;;;2.14;100.00
32747;BME280;19118;50.860;13.662;2023-04-07T22:43:41;97112.75;;;2.07;100.00
32747;BME280;19118;50.860;13.662;2023-04-07T22:48:41;97117.41;;;2.03;100.00
32747;BME280;19118;50.860;13.662;2023-04-07T22:53:42;97127.75;;;1.95;100.00
32747;BME280;19118;50.860;13.662;2023-04-07T22:58:42;97131.19;;;1.86;100.00
32747;BME280;19118;50.860;13.662;2023-04-07T23:03:42;97132.28;;;1.84;100.00
32747;BME280;19118;50.860;13.662;2023-04-07T23:08:44;97140.56;;;1.60;100.00
32747;BME280;19118;50.860;13.662;2023-04-07T23:13:44;97135.06;;;1.63;100.00
32747;BME280;19118;50.860;13.662;2023-04-07T23:18:44;97143.41;;;1.76;100.00
32747;BME280;19118;50.860;13.662;2023-04-07T23:23:45;97146.31;;;1.73;100.00
32747;BME280;19118;50.860;13.662;2023-04-07T23:28:45;97146.84;;;1.67;100.00
32747;BME280;19118;50.860;13.662;2023-04-07T23:33:46;97152.06;;;1.77;100.00
32747;BME280;19118;50.860;13.662;2023-04-07T23:38:47;97148.63;;;1.76;100.00
32747;BME280;19118;50.860;13.662;2023-04-07T23:43:47;97145.72;;;1.79;100.00
32747;BME280;19118;50.860;13.662;2023-04-07T23:48:47;97144.91;;;1.88;100.00
32747;BME280;19118;50.860;13.662;2023-04-07T23:53:48;97149.44;;;1.86;100.00
32747;BME280;19118;50.860;13.662;2023-04-07T23:58:48;97155.63;;;1.85;100.00
